sensor_id;sensor_type;location;lat;lon;timestamp;P1;durP1;ratioP1;P2;durP2;ratioP2
73557;SDS011;61829;53.286;10.434;2023-05-20T00:00:45;1.73;;;1.20;;
73557;SDS011;61829;53.286;10.434;2023-05-20T00:03:18;1.08;;;0.82;;
73557;SDS011;61829;53.286;10.434;2023-05-20T00:05:47;1.58;;;0.90;;
73557;SDS011;61829;53.286;10.434;2023-05-20T00:08:13;1.23;;;0.75;;
73557;SDS011;61829;53.286;10.434;2023-05-20T00:10:39;2.05;;;0.98;;
73557;SDS011;61829;53.286;10.434;2023-05-20T00:13:06;3.00;;;1.20;;
73557;SDS011;61829;53.286;10.434;2023-05-20T00:15:32;3.10;;;1.00;;
73557;SDS011;61829;53.286;10.434;2023-05-20T00:18:03;2.55;;;1.00;;
73557;SDS011;61829;53.286;10.434;2023-05-20T00:20:29;1.85;;;1.00;;
73557;SDS011;61829;53.286;10.434;2023-05-20T00:22:55;1.83;;;1.00;;
73557;SDS011;61829;53.286;10.434;2023-05-20T00:25:21;1.20;;;1.00;;
73557;SDS011;61829;53.286;10.434;2023-05-20T00:27:47;2.83;;;1.15;;
73557;SDS011;61829;53.286;10.434;2023-05-20T00:30:16;2.70;;;1.05;;
73557;SDS011;61829;53.286;10.434;2023-05-20T00:32:43;1.92;;;0.90;;
73557;SDS011;61829;53.286;10.434;2023-05-20T00:35:11;2.17;;;1.00;;
73557;SDS011;61829;53.286;10.434;2023-05-20T00:37:38;1.50;;;0.93;;
73557;SDS011;61829;53.286;10.434;2023-05-20T00:40:05;1.45;;;1.00;;
73557;SDS011;61829;53.286;10.434;2023-05-20T00:42:31;1.58;;;1.02;;
73557;SDS011;61829;53.286;10.434;2023-05-20T00:44:58;1.98;;;1.05;;
73557;SDS011;61829;53.286;10.434;2023-05-20T00:47:26;1.85;;;0.98;;
73557;SDS011;61829;53.286;10.434;2023-05-20T00:49:54;1.60;;;0.95;;
73557;SDS011;61829;53.286;10.434;2023-05-20T00:52:21;4.13;;;1.00;;
73557;SDS011;61829;53.286;10.434;2023-05-20T00:54:47;2.72;;;1.20;;
73557;SDS011;61829;53.286;10.434;2023-05-20T00:57:14;1.92;;;0.95;;
73557;SDS011;61829;53.286;10.434;2023-05-20T00:59:41;1.23;;;0.90;;
73557;SDS011;61829;53.286;10.434;2023-05-20T01:02:07;1.83;;;0.90;;
73557;SDS011;61829;53.286;10.434;2023-05-20T01:04:33;1.23;;;0.80;;
73557;SDS011;61829;53.286;10.434;2023-05-20T01:06:59;2.72;;;1.02;;
73557;SDS011;61829;53.286;10.434;2023-05-20T01:09:28;1.40;;;0.85;;
73557;SDS011;61829;53.286;10.434;2023-05-20T01:14:35;2.83;;;0.90;;
73557;SDS011;61829;53.286;10.434;2023-05-20T01:17:05;1.35;;;0.90;;
73557;SDS011;61829;53.286;10.434;2023-05-20T01:19:40;1.73;;;0.90;;
73557;SDS011;61829;53.286;10.434;2023-05-20T01:22:09;2.05;;;1.05;;
73557;SDS011;61829;53.286;10.434;2023-05-20T01:24:40;1.80;;;0.98;;
73557;SDS011;61829;53.286;10.434;2023-05-20T01:27:10;1.55;;;0.80;;
73557;SDS011;61829;53.286;10.434;2023-05-20T01:29:38;3.08;;;1.10;;
73557;SDS011;61829;53.286;10.434;2023-05-20T01:32:05;2.90;;;1.00;;
73557;SDS011;61829;53.286;10.434;2023-05-20T01:34:35;1.23;;;0.85;;
73557;SDS011;61829;53.286;10.434;2023-05-20T01:37:03;0.85;;;0.80;;
73557;SDS011;61829;53.286;10.434;2023-05-20T01:39:32;1.70;;;1.20;;
73557;SDS011;61829;53.286;10.434;2023-05-20T01:42:02;2.55;;;1.20;;
73557;SDS011;61829;53.286;10.434;2023-05-20T01:44:30;0.82;;;0.80;;
73557;SDS011;61829;53.286;10.434;2023-05-20T01:46:58;3.22;;;1.48;;
73557;SDS011;61829;53.286;10.434;2023-05-20T01:49:24;1.23;;;0.85;;
73557;SDS011;61829;53.286;10.434;2023-05-20T01:51:50;1.20;;;0.80;;
73557;SDS011;61829;53.286;10.434;2023-05-20T01:54:16;2.55;;;1.23;;
73557;SDS011;61829;53.286;10.434;2023-05-20T01:56:44;1.30;;;0.90;;
73557;SDS011;61829;53.286;10.434;2023-05-20T01:59:11;1.60;;;0.85;;
73557;SDS011;61829;53.286;10.434;2023-05-20T02:01:37;2.35;;;0.93;;
73557;SDS011;61829;53.286;10.434;2023-05-20T02:04:03;2.33;;;1.10;;
73557;SDS011;61829;53.286;10.434;2023-05-20T02:06:29;2.05;;;1.05;;
73557;SDS011;61829;53.286;10.434;2023-05-20T02:08:55;2.08;;;1.10;;
73557;SDS011;61829;53.286;10.434;2023-05-20T02:11:21;1.42;;;0.95;;
73557;SDS011;61829;53.286;10.434;2023-05-20T02:13:48;2.42;;;1.10;;
73557;SDS011;61829;53.286;10.434;2023-05-20T02:16:16;2.13;;;1.00;;
73557;SDS011;61829;53.286;10.434;2023-05-20T02:18:42;3.13;;;1.05;;
73557;SDS011;61829;53.286;10.434;2023-05-20T02:21:08;1.17;;;1.00;;
73557;SDS011;61829;53.286;10.434;2023-05-20T02:23:34;1.40;;;0.90;;
73557;SDS011;61829;53.286;10.434;2023-05-20T02:26:00;4.05;;;1.30;;
73557;SDS011;61829;53.286;10.434;2023-05-20T02:28:26;1.45;;;1.05;;
73557;SDS011;61829;53.286;10.434;2023-05-20T02:30:52;2.05;;;0.90;;
73557;SDS011;61829;53.286;10.434;2023-05-20T02:33:18;1.60;;;1.00;;
73557;SDS011;61829;53.286;10.434;2023-05-20T02:35:44;1.63;;;1.00;;
73557;SDS011;61829;53.286;10.434;2023-05-20T02:38:10;2.58;;;1.20;;
73557;SDS011;61829;53.286;10.434;2023-05-20T02:40:37;1.67;;;1.10;;
73557;SDS011;61829;53.286;10.434;2023-05-20T02:43:03;2.47;;;1.20;;
73557;SDS011;61829;53.286;10.434;2023-05-20T02:45:29;2.78;;;1.00;;
73557;SDS011;61829;53.286;10.434;2023-05-20T02:47:55;1.70;;;0.90;;
73557;SDS011;61829;53.286;10.434;2023-05-20T02:50:21;1.10;;;0.90;;
73557;SDS011;61829;53.286;10.434;2023-05-20T02:52:47;2.33;;;1.00;;
73557;SDS011;61829;53.286;10.434;2023-05-20T02:55:13;2.20;;;1.20;;
73557;SDS011;61829;53.286;10.434;2023-05-20T02:57:38;1.70;;;0.90;;
73557;SDS011;61829;53.286;10.434;2023-05-20T03:00:05;4.10;;;1.00;;
73557;SDS011;61829;53.286;10.434;2023-05-20T03:02:35;4.70;;;1.10;;
73557;SDS011;61829;53.286;10.434;2023-05-20T03:05:01;1.45;;;1.00;;
73557;SDS011;61829;53.286;10.434;2023-05-20T03:07:30;4.03;;;1.10;;
73557;SDS011;61829;53.286;10.434;2023-05-20T03:09:58;1.08;;;0.95;;
73557;SDS011;61829;53.286;10.434;2023-05-20T03:12:24;2.85;;;1.20;;
73557;SDS011;61829;53.286;10.434;2023-05-20T03:14:50;6.20;;;1.27;;
73557;SDS011;61829;53.286;10.434;2023-05-20T03:17:20;2.22;;;1.30;;
73557;SDS011;61829;53.286;10.434;2023-05-20T03:19:51;1.98;;;1.15;;
73557;SDS011;61829;53.286;10.434;2023-05-20T03:22:20;3.03;;;1.13;;
73557;SDS011;61829;53.286;10.434;2023-05-20T03:24:49;2.90;;;1.30;;
73557;SDS011;61829;53.286;10.434;2023-05-20T03:27:17;1.48;;;1.02;;
73557;SDS011;61829;53.286;10.434;2023-05-20T03:29:46;1.50;;;0.93;;
73557;SDS011;61829;53.286;10.434;2023-05-20T03:32:12;2.20;;;1.10;;
73557;SDS011;61829;53.286;10.434;2023-05-20T03:34:38;1.63;;;0.80;;
73557;SDS011;61829;53.286;10.434;2023-05-20T03:37:04;2.60;;;1.30;;
73557;SDS011;61829;53.286;10.434;2023-05-20T03:39:32;2.35;;;1.10;;
73557;SDS011;61829;53.286;10.434;2023-05-20T03:42:01;3.75;;;1.05;;
73557;SDS011;61829;53.286;10.434;2023-05-20T03:44:29;3.13;;;1.13;;
73557;SDS011;61829;53.286;10.434;2023-05-20T03:46:58;2.50;;;1.08;;
73557;SDS011;61829;53.286;10.434;2023-05-20T03:49:23;1.65;;;0.98;;
73557;SDS011;61829;53.286;10.434;2023-05-20T03:51:49;2.00;;;1.10;;
73557;SDS011;61829;53.286;10.434;2023-05-20T03:54:18;3.25;;;1.38;;
73557;SDS011;61829;53.286;10.434;2023-05-20T03:56:44;3.33;;;1.30;;
73557;SDS011;61829;53.286;10.434;2023-05-20T03:59:11;3.00;;;1.20;;
73557;SDS011;61829;53.286;10.434;2023-05-20T04:01:37;2.22;;;1.20;;
73557;SDS011;61829;53.286;10.434;2023-05-20T04:04:03;2.00;;;1.23;;
73557;SDS011;61829;53.286;10.434;2023-05-20T04:06:29;2.05;;;1.20;;
73557;SDS011;61829;53.286;10.434;2023-05-20T04:08:57;4.47;;;1.30;;
73557;SDS011;61829;53.286;10.434;2023-05-20T04:11:24;2.05;;;1.10;;
73557;SDS011;61829;53.286;10.434;2023-05-20T04:13:50;2.45;;;1.00;;
73557;SDS011;61829;53.286;10.434;2023-05-20T04:16:16;1.95;;;1.17;;
73557;SDS011;61829;53.286;10.434;2023-05-20T04:18:42;3.55;;;1.30;;
73557;SDS011;61829;53.286;10.434;2023-05-20T04:21:11;2.15;;;1.20;;
73557;SDS011;61829;53.286;10.434;2023-05-20T04:23:47;3.72;;;1.02;;
73557;SDS011;61829;53.286;10.434;2023-05-20T04:26:13;3.10;;;1.20;;
73557;SDS011;61829;53.286;10.434;2023-05-20T04:28:39;4.03;;;1.05;;
73557;SDS011;61829;53.286;10.434;2023-05-20T04:31:06;3.72;;;1.00;;
73557;SDS011;61829;53.286;10.434;2023-05-20T04:33:32;1.75;;;1.00;;
73557;SDS011;61829;53.286;10.434;2023-05-20T04:36:02;4.28;;;1.45;;
73557;SDS011;61829;53.286;10.434;2023-05-20T04:40:57;4.07;;;1.27;;
73557;SDS011;61829;53.286;10.434;2023-05-20T04:43:25;2.17;;;1.27;;
73557;SDS011;61829;53.286;10.434;2023-05-20T04:45:57;3.25;;;1.27;;
73557;SDS011;61829;53.286;10.434;2023-05-20T04:48:30;2.67;;;1.10;;
73557;SDS011;61829;53.286;10.434;2023-05-20T04:50:57;7.43;;;1.50;;
73557;SDS011;61829;53.286;10.434;2023-05-20T04:53:23;2.42;;;1.15;;
73557;SDS011;61829;53.286;10.434;2023-05-20T04:55:49;1.90;;;1.10;;
73557;SDS011;61829;53.286;10.434;2023-05-20T04:58:18;2.83;;;1.10;;
73557;SDS011;61829;53.286;10.434;2023-05-20T05:00:45;1.63;;;1.00;;
73557;SDS011;61829;53.286;10.434;2023-05-20T05:03:13;2.05;;;1.17;;
73557;SDS011;61829;53.286;10.434;2023-05-20T05:05:40;2.53;;;1.40;;
73557;SDS011;61829;53.286;10.434;2023-05-20T05:08:07;1.42;;;1.05;;
73557;SDS011;61829;53.286;10.434;2023-05-20T05:10:34;1.73;;;1.20;;
73557;SDS011;61829;53.286;10.434;2023-05-20T05:13:00;3.13;;;1.20;;
73557;SDS011;61829;53.286;10.434;2023-05-20T05:15:26;2.00;;;1.10;;
73557;SDS011;61829;53.286;10.434;2023-05-20T05:17:53;4.65;;;1.40;;
73557;SDS011;61829;53.286;10.434;2023-05-20T05:20:19;2.00;;;1.17;;
73557;SDS011;61829;53.286;10.434;2023-05-20T05:22:45;2.05;;;1.10;;
73557;SDS011;61829;53.286;10.434;2023-05-20T05:25:11;1.95;;;1.20;;
73557;SDS011;61829;53.286;10.434;2023-05-20T05:27:37;4.30;;;1.20;;
73557;SDS011;61829;53.286;10.434;2023-05-20T05:30:04;3.33;;;1.30;;
73557;SDS011;61829;53.286;10.434;2023-05-20T05:32:31;6.38;;;1.30;;
73557;SDS011;61829;53.286;10.434;2023-05-20T05:34:57;2.72;;;1.20;;
73557;SDS011;61829;53.286;10.434;2023-05-20T05:37:23;1.92;;;1.20;;
73557;SDS011;61829;53.286;10.434;2023-05-20T05:39:50;2.95;;;1.20;;
73557;SDS011;61829;53.286;10.434;2023-05-20T05:42:15;1.42;;;1.10;;
73557;SDS011;61829;53.286;10.434;2023-05-20T05:47:09;4.47;;;1.20;;
73557;SDS011;61829;53.286;10.434;2023-05-20T05:49:35;3.58;;;1.23;;
73557;SDS011;61829;53.286;10.434;2023-05-20T05:52:01;2.63;;;1.17;;
73557;SDS011;61829;53.286;10.434;2023-05-20T05:54:27;4.43;;;1.60;;
73557;SDS011;61829;53.286;10.434;2023-05-20T05:56:53;1.88;;;1.05;;
73557;SDS011;61829;53.286;10.434;2023-05-20T05:59:21;3.22;;;1.52;;
73557;SDS011;61829;53.286;10.434;2023-05-20T06:01:47;1.88;;;1.20;;
73557;SDS011;61829;53.286;10.434;2023-05-20T06:04:13;2.05;;;1.20;;
73557;SDS011;61829;53.286;10.434;2023-05-20T06:06:40;2.85;;;1.40;;
73557;SDS011;61829;53.286;10.434;2023-05-20T06:09:06;2.08;;;1.30;;
73557;SDS011;61829;53.286;10.434;2023-05-20T06:13:59;2.92;;;1.33;;
73557;SDS011;61829;53.286;10.434;2023-05-20T06:16:26;2.80;;;1.30;;
73557;SDS011;61829;53.286;10.434;2023-05-20T06:18:52;3.60;;;1.23;;
73557;SDS011;61829;53.286;10.434;2023-05-20T06:21:21;3.33;;;1.40;;
73557;SDS011;61829;53.286;10.434;2023-05-20T06:23:48;3.13;;;1.75;;
73557;SDS011;61829;53.286;10.434;2023-05-20T06:26:14;4.30;;;1.60;;
73557;SDS011;61829;53.286;10.434;2023-05-20T06:28:40;4.88;;;1.40;;
73557;SDS011;61829;53.286;10.434;2023-05-20T06:31:06;5.38;;;1.40;;
73557;SDS011;61829;53.286;10.434;2023-05-20T06:33:32;3.33;;;1.40;;
73557;SDS011;61829;53.286;10.434;2023-05-20T06:35:59;2.45;;;1.35;;
73557;SDS011;61829;53.286;10.434;2023-05-20T06:38:26;3.22;;;1.38;;
73557;SDS011;61829;53.286;10.434;2023-05-20T06:40:52;2.35;;;1.20;;
73557;SDS011;61829;53.286;10.434;2023-05-20T06:43:18;4.40;;;1.38;;
73557;SDS011;61829;53.286;10.434;2023-05-20T06:45:44;4.45;;;1.60;;
73557;SDS011;61829;53.286;10.434;2023-05-20T06:48:10;2.47;;;1.40;;
73557;SDS011;61829;53.286;10.434;2023-05-20T06:50:36;3.25;;;1.60;;
73557;SDS011;61829;53.286;10.434;2023-05-20T06:53:02;2.45;;;1.48;;
73557;SDS011;61829;53.286;10.434;2023-05-20T06:55:28;3.72;;;1.83;;
73557;SDS011;61829;53.286;10.434;2023-05-20T06:57:55;4.10;;;1.40;;
73557;SDS011;61829;53.286;10.434;2023-05-20T07:00:21;4.13;;;1.77;;
73557;SDS011;61829;53.286;10.434;2023-05-20T07:02:47;2.88;;;1.60;;
73557;SDS011;61829;53.286;10.434;2023-05-20T07:05:12;2.70;;;1.52;;
73557;SDS011;61829;53.286;10.434;2023-05-20T07:07:38;3.97;;;1.60;;
73557;SDS011;61829;53.286;10.434;2023-05-20T07:10:04;3.78;;;1.40;;
73557;SDS011;61829;53.286;10.434;2023-05-20T07:12:33;4.97;;;1.65;;
73557;SDS011;61829;53.286;10.434;2023-05-20T07:14:59;3.35;;;1.30;;
73557;SDS011;61829;53.286;10.434;2023-05-20T07:17:25;2.83;;;1.50;;
73557;SDS011;61829;53.286;10.434;2023-05-20T07:19:55;3.35;;;1.50;;
73557;SDS011;61829;53.286;10.434;2023-05-20T07:22:21;5.85;;;2.28;;
73557;SDS011;61829;53.286;10.434;2023-05-20T07:24:47;2.72;;;1.40;;
73557;SDS011;61829;53.286;10.434;2023-05-20T07:27:13;3.88;;;1.40;;
73557;SDS011;61829;53.286;10.434;2023-05-20T07:29:39;2.60;;;1.50;;
73557;SDS011;61829;53.286;10.434;2023-05-20T07:32:07;3.97;;;1.60;;
73557;SDS011;61829;53.286;10.434;2023-05-20T07:34:33;3.60;;;1.55;;
73557;SDS011;61829;53.286;10.434;2023-05-20T07:36:59;3.53;;;1.30;;
73557;SDS011;61829;53.286;10.434;2023-05-20T07:39:25;3.78;;;1.70;;
73557;SDS011;61829;53.286;10.434;2023-05-20T07:41:52;3.30;;;1.60;;
73557;SDS011;61829;53.286;10.434;2023-05-20T07:44:17;3.15;;;1.63;;
73557;SDS011;61829;53.286;10.434;2023-05-20T07:46:45;3.80;;;1.65;;
73557;SDS011;61829;53.286;10.434;2023-05-20T07:49:11;3.42;;;1.58;;
73557;SDS011;61829;53.286;10.434;2023-05-20T07:51:37;5.10;;;1.90;;
73557;SDS011;61829;53.286;10.434;2023-05-20T07:54:03;2.90;;;1.50;;
73557;SDS011;61829;53.286;10.434;2023-05-20T07:56:30;4.10;;;2.33;;
73557;SDS011;61829;53.286;10.434;2023-05-20T07:58:56;3.65;;;1.48;;
73557;SDS011;61829;53.286;10.434;2023-05-20T08:01:27;3.72;;;1.50;;
73557;SDS011;61829;53.286;10.434;2023-05-20T08:03:53;4.20;;;1.80;;
73557;SDS011;61829;53.286;10.434;2023-05-20T08:06:20;2.92;;;1.63;;
73557;SDS011;61829;53.286;10.434;2023-05-20T08:08:46;3.28;;;1.58;;
73557;SDS011;61829;53.286;10.434;2023-05-20T08:11:12;2.78;;;1.60;;
73557;SDS011;61829;53.286;10.434;2023-05-20T08:13:38;3.42;;;1.52;;
73557;SDS011;61829;53.286;10.434;2023-05-20T08:16:04;3.28;;;1.50;;
73557;SDS011;61829;53.286;10.434;2023-05-20T08:18:31;2.55;;;1.50;;
73557;SDS011;61829;53.286;10.434;2023-05-20T08:20:58;3.78;;;1.70;;
73557;SDS011;61829;53.286;10.434;2023-05-20T08:23:24;5.93;;;1.58;;
73557;SDS011;61829;53.286;10.434;2023-05-20T08:25:50;5.38;;;1.50;;
73557;SDS011;61829;53.286;10.434;2023-05-20T08:28:16;5.75;;;1.65;;
73557;SDS011;61829;53.286;10.434;2023-05-20T08:30:42;4.28;;;1.30;;
73557;SDS011;61829;53.286;10.434;2023-05-20T08:33:11;3.05;;;1.40;;
73557;SDS011;61829;53.286;10.434;2023-05-20T08:35:37;6.90;;;1.58;;
73557;SDS011;61829;53.286;10.434;2023-05-20T08:38:06;2.00;;;1.20;;
73557;SDS011;61829;53.286;10.434;2023-05-20T08:40:35;4.60;;;1.70;;
73557;SDS011;61829;53.286;10.434;2023-05-20T08:43:05;3.90;;;1.63;;
73557;SDS011;61829;53.286;10.434;2023-05-20T08:45:32;4.90;;;1.50;;
73557;SDS011;61829;53.286;10.434;2023-05-20T08:48:01;2.17;;;1.33;;
73557;SDS011;61829;53.286;10.434;2023-05-20T08:50:30;2.42;;;1.40;;
73557;SDS011;61829;53.286;10.434;2023-05-20T08:52:59;3.67;;;1.50;;
73557;SDS011;61829;53.286;10.434;2023-05-20T08:55:37;3.15;;;1.55;;
73557;SDS011;61829;53.286;10.434;2023-05-20T08:58:08;2.83;;;1.38;;
73557;SDS011;61829;53.286;10.434;2023-05-20T09:00:35;4.10;;;1.70;;
73557;SDS011;61829;53.286;10.434;2023-05-20T09:03:01;3.58;;;1.45;;
73557;SDS011;61829;53.286;10.434;2023-05-20T09:05:29;4.50;;;1.40;;
73557;SDS011;61829;53.286;10.434;2023-05-20T09:08:07;2.85;;;1.60;;
73557;SDS011;61829;53.286;10.434;2023-05-20T09:10:35;2.97;;;1.50;;
73557;SDS011;61829;53.286;10.434;2023-05-20T09:13:03;2.70;;;1.40;;
73557;SDS011;61829;53.286;10.434;2023-05-20T09:15:33;3.50;;;1.48;;
73557;SDS011;61829;53.286;10.434;2023-05-20T09:18:03;3.60;;;1.60;;
73557;SDS011;61829;53.286;10.434;2023-05-20T09:20:34;2.47;;;1.55;;
73557;SDS011;61829;53.286;10.434;2023-05-20T09:23:05;2.45;;;1.40;;
73557;SDS011;61829;53.286;10.434;2023-05-20T09:25:35;4.57;;;1.48;;
73557;SDS011;61829;53.286;10.434;2023-05-20T09:28:06;2.13;;;1.20;;
73557;SDS011;61829;53.286;10.434;2023-05-20T09:30:33;2.47;;;1.08;;
73557;SDS011;61829;53.286;10.434;2023-05-20T09:32:59;2.85;;;1.42;;
73557;SDS011;61829;53.286;10.434;2023-05-20T09:35:26;5.07;;;1.45;;
73557;SDS011;61829;53.286;10.434;2023-05-20T09:37:53;5.25;;;1.33;;
73557;SDS011;61829;53.286;10.434;2023-05-20T09:40:25;3.30;;;1.38;;
73557;SDS011;61829;53.286;10.434;2023-05-20T09:42:53;2.63;;;1.30;;
73557;SDS011;61829;53.286;10.434;2023-05-20T09:45:21;1.88;;;1.20;;
73557;SDS011;61829;53.286;10.434;2023-05-20T09:47:48;4.28;;;1.30;;
73557;SDS011;61829;53.286;10.434;2023-05-20T09:50:17;2.90;;;1.30;;
73557;SDS011;61829;53.286;10.434;2023-05-20T09:52:52;4.53;;;1.55;;
73557;SDS011;61829;53.286;10.434;2023-05-20T09:55:20;3.78;;;1.38;;
73557;SDS011;61829;53.286;10.434;2023-05-20T09:57:47;3.30;;;1.50;;
73557;SDS011;61829;53.286;10.434;2023-05-20T10:00:14;2.30;;;1.50;;
73557;SDS011;61829;53.286;10.434;2023-05-20T10:02:46;3.75;;;1.50;;
73557;SDS011;61829;53.286;10.434;2023-05-20T10:05:28;3.97;;;1.60;;
73557;SDS011;61829;53.286;10.434;2023-05-20T10:15:56;2.63;;;1.40;;
73557;SDS011;61829;53.286;10.434;2023-05-20T10:21:31;2.35;;;1.40;;
73557;SDS011;61829;53.286;10.434;2023-05-20T10:24:07;4.53;;;1.50;;
73557;SDS011;61829;53.286;10.434;2023-05-20T10:26:35;2.50;;;1.30;;
73557;SDS011;61829;53.286;10.434;2023-05-20T10:29:17;4.25;;;1.70;;
73557;SDS011;61829;53.286;10.434;2023-05-20T10:31:47;3.70;;;1.70;;
73557;SDS011;61829;53.286;10.434;2023-05-20T10:34:15;4.15;;;1.50;;
73557;SDS011;61829;53.286;10.434;2023-05-20T10:36:46;3.67;;;1.83;;
73557;SDS011;61829;53.286;10.434;2023-05-20T10:39:15;5.30;;;1.90;;
73557;SDS011;61829;53.286;10.434;2023-05-20T10:41:44;5.20;;;1.95;;
73557;SDS011;61829;53.286;10.434;2023-05-20T10:44:10;5.60;;;3.22;;
73557;SDS011;61829;53.286;10.434;2023-05-20T10:46:36;4.00;;;1.55;;
73557;SDS011;61829;53.286;10.434;2023-05-20T10:49:02;2.80;;;1.30;;
73557;SDS011;61829;53.286;10.434;2023-05-20T10:51:28;3.63;;;1.45;;
73557;SDS011;61829;53.286;10.434;2023-05-20T10:53:56;4.03;;;1.30;;
73557;SDS011;61829;53.286;10.434;2023-05-20T10:56:23;2.90;;;1.60;;
73557;SDS011;61829;53.286;10.434;2023-05-20T10:58:51;3.20;;;1.52;;
73557;SDS011;61829;53.286;10.434;2023-05-20T11:03:48;3.38;;;1.60;;
73557;SDS011;61829;53.286;10.434;2023-05-20T11:06:16;6.10;;;1.40;;
73557;SDS011;61829;53.286;10.434;2023-05-20T11:08:43;3.35;;;1.50;;
73557;SDS011;61829;53.286;10.434;2023-05-20T11:11:10;3.35;;;1.50;;
73557;SDS011;61829;53.286;10.434;2023-05-20T11:13:37;3.88;;;1.58;;
73557;SDS011;61829;53.286;10.434;2023-05-20T11:16:03;2.78;;;1.60;;
73557;SDS011;61829;53.286;10.434;2023-05-20T11:18:30;2.95;;;1.52;;
73557;SDS011;61829;53.286;10.434;2023-05-20T11:21:00;3.55;;;1.50;;
73557;SDS011;61829;53.286;10.434;2023-05-20T11:23:27;3.10;;;1.90;;
73557;SDS011;61829;53.286;10.434;2023-05-20T11:25:54;3.40;;;1.55;;
73557;SDS011;61829;53.286;10.434;2023-05-20T11:28:21;3.63;;;1.60;;
73557;SDS011;61829;53.286;10.434;2023-05-20T11:30:51;3.10;;;1.52;;
73557;SDS011;61829;53.286;10.434;2023-05-20T11:33:17;3.45;;;1.48;;
73557;SDS011;61829;53.286;10.434;2023-05-20T11:35:44;3.25;;;1.60;;
73557;SDS011;61829;53.286;10.434;2023-05-20T11:38:11;3.35;;;1.60;;
73557;SDS011;61829;53.286;10.434;2023-05-20T11:40:41;4.75;;;1.80;;
73557;SDS011;61829;53.286;10.434;2023-05-20T11:43:09;5.78;;;1.70;;
73557;SDS011;61829;53.286;10.434;2023-05-20T11:45:40;3.47;;;2.10;;
73557;SDS011;61829;53.286;10.434;2023-05-20T11:48:07;4.10;;;2.22;;
73557;SDS011;61829;53.286;10.434;2023-05-20T11:50:34;5.03;;;2.22;;
73557;SDS011;61829;53.286;10.434;2023-05-20T11:53:17;4.13;;;1.95;;
73557;SDS011;61829;53.286;10.434;2023-05-20T12:00:50;4.53;;;1.92;;
73557;SDS011;61829;53.286;10.434;2023-05-20T12:03:16;4.18;;;1.80;;
73557;SDS011;61829;53.286;10.434;2023-05-20T12:05:42;4.13;;;2.10;;
73557;SDS011;61829;53.286;10.434;2023-05-20T12:08:08;4.65;;;2.03;;
73557;SDS011;61829;53.286;10.434;2023-05-20T12:10:35;4.43;;;2.10;;
73557;SDS011;61829;53.286;10.434;2023-05-20T12:13:04;3.67;;;1.90;;
73557;SDS011;61829;53.286;10.434;2023-05-20T12:15:34;3.78;;;2.20;;
73557;SDS011;61829;53.286;10.434;2023-05-20T12:18:00;3.35;;;1.92;;
73557;SDS011;61829;53.286;10.434;2023-05-20T12:20:26;4.20;;;2.42;;
73557;SDS011;61829;53.286;10.434;2023-05-20T12:22:53;5.07;;;2.13;;
73557;SDS011;61829;53.286;10.434;2023-05-20T12:25:19;4.60;;;2.10;;
73557;SDS011;61829;53.286;10.434;2023-05-20T12:27:46;4.57;;;2.10;;
73557;SDS011;61829;53.286;10.434;2023-05-20T12:30:19;3.35;;;2.10;;
73557;SDS011;61829;53.286;10.434;2023-05-20T12:35:12;3.80;;;2.10;;
73557;SDS011;61829;53.286;10.434;2023-05-20T12:37:38;3.80;;;2.10;;
73557;SDS011;61829;53.286;10.434;2023-05-20T12:40:09;5.30;;;2.63;;
73557;SDS011;61829;53.286;10.434;2023-05-20T12:42:36;5.53;;;2.33;;
73557;SDS011;61829;53.286;10.434;2023-05-20T12:47:29;3.85;;;2.40;;
73557;SDS011;61829;53.286;10.434;2023-05-20T12:49:55;3.75;;;2.22;;
73557;SDS011;61829;53.286;10.434;2023-05-20T12:52:21;4.43;;;2.00;;
73557;SDS011;61829;53.286;10.434;2023-05-20T12:54:48;5.85;;;2.38;;
73557;SDS011;61829;53.286;10.434;2023-05-20T12:57:14;7.65;;;2.22;;
73557;SDS011;61829;53.286;10.434;2023-05-20T12:59:40;6.55;;;2.55;;
73557;SDS011;61829;53.286;10.434;2023-05-20T13:02:06;5.57;;;2.20;;
73557;SDS011;61829;53.286;10.434;2023-05-20T13:04:32;5.53;;;2.72;;
73557;SDS011;61829;53.286;10.434;2023-05-20T13:06:58;4.57;;;2.28;;
73557;SDS011;61829;53.286;10.434;2023-05-20T13:09:24;5.45;;;2.75;;
73557;SDS011;61829;53.286;10.434;2023-05-20T13:11:50;4.68;;;2.45;;
73557;SDS011;61829;53.286;10.434;2023-05-20T13:14:16;5.35;;;2.40;;
73557;SDS011;61829;53.286;10.434;2023-05-20T13:16:42;3.80;;;2.13;;
73557;SDS011;61829;53.286;10.434;2023-05-20T13:19:08;6.78;;;2.38;;
73557;SDS011;61829;53.286;10.434;2023-05-20T13:21:33;4.25;;;2.88;;
73557;SDS011;61829;53.286;10.434;2023-05-20T13:24:00;3.65;;;2.08;;
73557;SDS011;61829;53.286;10.434;2023-05-20T13:26:26;6.70;;;2.22;;
73557;SDS011;61829;53.286;10.434;2023-05-20T13:28:52;4.68;;;2.45;;
73557;SDS011;61829;53.286;10.434;2023-05-20T13:31:18;5.80;;;2.20;;
73557;SDS011;61829;53.286;10.434;2023-05-20T13:33:44;4.40;;;2.30;;
73557;SDS011;61829;53.286;10.434;2023-05-20T13:36:10;4.35;;;2.20;;
73557;SDS011;61829;53.286;10.434;2023-05-20T13:38:36;3.88;;;2.30;;
73557;SDS011;61829;53.286;10.434;2023-05-20T13:41:02;3.00;;;1.90;;
73557;SDS011;61829;53.286;10.434;2023-05-20T13:43:28;3.45;;;2.20;;
73557;SDS011;61829;53.286;10.434;2023-05-20T13:45:54;3.85;;;2.05;;
73557;SDS011;61829;53.286;10.434;2023-05-20T13:48:21;3.70;;;1.85;;
73557;SDS011;61829;53.286;10.434;2023-05-20T13:50:47;5.00;;;2.10;;
73557;SDS011;61829;53.286;10.434;2023-05-20T13:53:13;5.07;;;2.17;;
73557;SDS011;61829;53.286;10.434;2023-05-20T13:55:39;3.70;;;2.08;;
73557;SDS011;61829;53.286;10.434;2023-05-20T13:58:06;5.00;;;2.55;;
73557;SDS011;61829;53.286;10.434;2023-05-20T14:00:35;4.15;;;2.20;;
73557;SDS011;61829;53.286;10.434;2023-05-20T14:03:03;4.68;;;2.40;;
73557;SDS011;61829;53.286;10.434;2023-05-20T14:05:31;4.28;;;2.15;;
73557;SDS011;61829;53.286;10.434;2023-05-20T14:07:58;5.50;;;2.20;;
73557;SDS011;61829;53.286;10.434;2023-05-20T14:10:25;4.90;;;2.08;;
73557;SDS011;61829;53.286;10.434;2023-05-20T14:12:51;4.15;;;2.10;;
73557;SDS011;61829;53.286;10.434;2023-05-20T14:15:17;4.05;;;2.17;;
73557;SDS011;61829;53.286;10.434;2023-05-20T14:17:43;4.45;;;2.17;;
73557;SDS011;61829;53.286;10.434;2023-05-20T14:20:09;3.72;;;2.03;;
73557;SDS011;61829;53.286;10.434;2023-05-20T14:22:36;3.15;;;1.95;;
73557;SDS011;61829;53.286;10.434;2023-05-20T14:25:01;3.60;;;2.08;;
73557;SDS011;61829;53.286;10.434;2023-05-20T14:27:28;3.22;;;1.83;;
73557;SDS011;61829;53.286;10.434;2023-05-20T14:29:54;4.28;;;2.10;;
73557;SDS011;61829;53.286;10.434;2023-05-20T14:34:46;2.08;;;1.60;;
73557;SDS011;61829;53.286;10.434;2023-05-20T14:37:12;3.33;;;1.80;;
73557;SDS011;61829;53.286;10.434;2023-05-20T14:39:39;4.75;;;2.00;;
73557;SDS011;61829;53.286;10.434;2023-05-20T14:42:06;3.38;;;1.90;;
73557;SDS011;61829;53.286;10.434;2023-05-20T14:44:32;4.20;;;1.90;;
73557;SDS011;61829;53.286;10.434;2023-05-20T14:46:58;4.15;;;1.80;;
73557;SDS011;61829;53.286;10.434;2023-05-20T14:49:24;4.40;;;1.80;;
73557;SDS011;61829;53.286;10.434;2023-05-20T14:51:50;3.35;;;1.90;;
73557;SDS011;61829;53.286;10.434;2023-05-20T14:54:16;2.80;;;1.90;;
73557;SDS011;61829;53.286;10.434;2023-05-20T14:56:43;5.18;;;1.80;;
73557;SDS011;61829;53.286;10.434;2023-05-20T14:59:09;4.38;;;2.40;;
73557;SDS011;61829;53.286;10.434;2023-05-20T15:01:35;3.33;;;1.75;;
73557;SDS011;61829;53.286;10.434;2023-05-20T15:04:01;2.85;;;1.95;;
73557;SDS011;61829;53.286;10.434;2023-05-20T15:06:28;3.60;;;1.90;;
73557;SDS011;61829;53.286;10.434;2023-05-20T15:08:54;4.78;;;2.10;;